Time;durP1;ratioP1;P1;durP2;ratioP2;P2;SDS_P1;SDS_P2;PMS_P1;PMS_P2;Temp;Humidity;BMP_temperature;BMP_pressure;BME280_temperature;BME280_humidity;BME280_pressure;Samples;Min_cycle;Max_cycle;Signal;HPM_P1;HPM_P2
2022/03/06 00:01:13;;;;;;;3.45;2.00;;;;;;;;;;5096429;28;20210;-61
2022/03/06 00:03:39;;;;;;;4.82;1.67;;;;;;;;;;5096763;28;20167;-61
2022/03/06 00:06:05;;;;;;;5.60;2.20;;;;;;;;;;5096323;28;20160;-61
2022/03/06 00:08:31;;;;;;;2.88;2.03;;;;;;;;;;5096380;28;20182;-61
2022/03/06 00:10:57;;;;;;;3.13;1.90;;;;;;;;;;5096224;28;20156;-61
2022/03/06 00:13:23;;;;;;;2.35;1.88;;;;;;;;;;5096671;28;20178;-61
2022/03/06 00:15:49;;;;;;;2.63;2.03;;;;;;;;;;5096444;28;20211;-61
2022/03/06 00:18:15;;;;;;;3.33;1.73;;;;;;;;;;5096395;28;20202;-61
2022/03/06 00:20:42;;;;;;;3.05;1.77;;;;;;;;;;5095096;28;20175;-61
2022/03/06 00:23:08;;;;;;;2.25;1.60;;;;;;;;;;5096726;28;20702;-61
2022/03/06 00:25:34;;;;;;;3.70;1.85;;;;;;;;;;5096469;28;20176;-61
2022/03/06 00:28:00;;;;;;;3.67;1.70;;;;;;;;;;5095670;28;20530;-61
2022/03/06 00:30:26;;;;;;;2.20;1.50;;;;;;;;;;5096068;28;20163;-61
2022/03/06 00:32:52;;;;;;;2.65;1.50;;;;;;;;;;5095956;28;20167;-60
2022/03/06 00:35:18;;;;;;;2.55;1.67;;;;;;;;;;5096295;28;20240;-60
2022/03/06 00:37:44;;;;;;;3.42;1.65;;;;;;;;;;5095948;28;20543;-64
2022/03/06 00:40:10;;;;;;;3.08;1.50;;;;;;;;;;5095364;28;20428;-64
2022/03/06 00:42:36;;;;;;;2.53;1.80;;;;;;;;;;5095523;28;20476;-64
2022/03/06 00:45:03;;;;;;;2.28;1.45;;;;;;;;;;5095846;28;20159;-63
2022/03/06 00:47:29;;;;;;;3.25;1.45;;;;;;;;;;5095657;28;20581;-62
2022/03/06 00:49:55;;;;;;;3.22;1.38;;;;;;;;;;5095569;28;20224;-59
2022/03/06 00:52:21;;;;;;;2.42;1.60;;;;;;;;;;5095350;28;20176;-59
2022/03/06 00:54:47;;;;;;;1.83;1.27;;;;;;;;;;5095299;28;20155;-61
2022/03/06 00:57:12;;;;;;;5.25;1.33;;;;;;;;;;5095661;28;20492;-61
2022/03/06 00:59:38;;;;;;;3.20;1.30;;;;;;;;;;5094916;28;20193;-62
2022/03/06 01:02:08;;;;;;;2.90;0.90;;;;;;;;;;5095290;28;20160;-61
2022/03/06 01:04:34;;;;;;;1.60;1.27;;;;;;;;;;5095356;28;20362;-61
2022/03/06 01:07:00;;;;;;;4.57;1.30;;;;;;;;;;5095675;28;20222;-61
2022/03/06 01:09:26;;;;;;;2.58;1.20;;;;;;;;;;5095689;28;20163;-62
2022/03/06 01:11:52;;;;;;;2.38;1.10;;;;;;;;;;5095524;28;20182;-61
2022/03/06 01:14:19;;;;;;;1.23;1.05;;;;;;;;;;5095566;28;20516;-61
2022/03/06 01:16:45;;;;;;;1.63;1.00;;;;;;;;;;5095028;28;20593;-61
2022/03/06 01:19:11;;;;;;;2.08;0.98;;;;;;;;;;5095312;28;20186;-61
2022/03/06 01:21:37;;;;;;;1.70;1.00;;;;;;;;;;5095015;28;20179;-61
2022/03/06 01:24:03;;;;;;;2.58;0.90;;;;;;;;;;5095281;28;20163;-60
2022/03/06 01:26:29;;;;;;;0.80;0.80;;;;;;;;;;5094893;28;20194;-61
2022/03/06 01:28:55;;;;;;;1.42;0.95;;;;;;;;;;5095137;28;20164;-62
2022/03/06 01:31:21;;;;;;;2.42;1.00;;;;;;;;;;5095420;28;20238;-62
2022/03/06 01:33:47;;;;;;;1.35;0.90;;;;;;;;;;5094851;28;20479;-61
2022/03/06 01:36:13;;;;;;;1.48;1.13;;;;;;;;;;5094853;28;20167;-62
2022/03/06 01:38:38;;;;;;;1.70;0.98;;;;;;;;;;5094672;28;20160;-62
2022/03/06 01:41:04;;;;;;;1.25;0.85;;;;;;;;;;5095040;28;20177;-61
2022/03/06 01:43:30;;;;;;;2.00;0.88;;;;;;;;;;5094823;28;20171;-62
2022/03/06 01:45:56;;;;;;;3.80;0.82;;;;;;;;;;5094640;28;20171;-61
2022/03/06 01:48:22;;;;;;;1.77;1.00;;;;;;;;;;5094578;28;20208;-61
2022/03/06 01:50:48;;;;;;;1.40;0.98;;;;;;;;;;5094319;28;20176;-61
2022/03/06 01:53:14;;;;;;;2.45;1.10;;;;;;;;;;5094303;28;20168;-61
2022/03/06 01:55:42;;;;;;;2.83;0.95;;;;;;;;;;5094051;28;20164;-61
2022/03/06 01:58:10;;;;;;;1.67;0.73;;;;;;;;;;5094508;28;20230;-61
2022/03/06 02:00:40;;;;;;;2.30;1.00;;;;;;;;;;5094456;28;20183;-61
2022/03/06 02:03:06;;;;;;;2.08;1.00;;;;;;;;;;5094170;28;20167;-61
2022/03/06 02:05:32;;;;;;;1.52;0.80;;;;;;;;;;5094540;28;20567;-61
2022/03/06 02:07:58;;;;;;;1.23;1.02;;;;;;;;;;5094443;28;20187;-61
2022/03/06 02:10:24;;;;;;;3.25;0.90;;;;;;;;;;5094515;28;20237;-61
2022/03/06 02:12:50;;;;;;;2.58;0.93;;;;;;;;;;5093380;28;20665;-60
2022/03/06 02:15:16;;;;;;;3.50;1.10;;;;;;;;;;5094475;28;20672;-60
2022/03/06 02:17:42;;;;;;;2.72;0.93;;;;;;;;;;5094101;28;20163;-61
2022/03/06 02:20:10;;;;;;;2.50;0.90;;;;;;;;;;5094309;28;20265;-61
2022/03/06 02:22:37;;;;;;;1.15;1.05;;;;;;;;;;5094017;28;20451;-60
2022/03/06 02:25:05;;;;;;;1.20;0.90;;;;;;;;;;5094023;28;20637;-60
2022/03/06 02:27:31;;;;;;;3.67;1.10;;;;;;;;;;5094131;28;20248;-61
2022/03/06 02:29:57;;;;;;;1.15;1.00;;;;;;;;;;5094164;28;20171;-60
2022/03/06 02:32:23;;;;;;;1.05;0.82;;;;;;;;;;5093312;28;20175;-60
2022/03/06 02:34:51;;;;;;;1.52;0.82;;;;;;;;;;5093713;28;20475;-59
2022/03/06 02:37:20;;;;;;;0.95;0.85;;;;;;;;;;5093315;28;20179;-60
2022/03/06 02:39:46;;;;;;;2.95;1.27;;;;;;;;;;5093320;28;20171;-59
2022/03/06 02:42:25;;;;;;;1.38;1.27;;;;;;;;;;5093600;28;20171;-60
2022/03/06 02:44:52;;;;;;;2.20;0.90;;;;;;;;;;5093666;28;20547;-60
2022/03/06 02:47:18;;;;;;;2.30;1.20;;;;;;;;;;5093363;28;20211;-60
2022/03/06 02:49:44;;;;;;;2.10;1.20;;;;;;;;;;5093340;28;20592;-60
2022/03/06 02:52:10;;;;;;;1.50;1.10;;;;;;;;;;5093358;28;20166;-60
2022/03/06 02:54:36;;;;;;;1.42;1.13;;;;;;;;;;5093359;28;20160;-60
2022/03/06 02:57:04;;;;;;;2.03;1.17;;;;;;;;;;5093214;28;20171;-60
2022/03/06 02:59:29;;;;;;;2.47;0.98;;;;;;;;;;5092982;28;20170;-60
2022/03/06 03:01:55;;;;;;;1.30;1.05;;;;;;;;;;5093153;28;20230;-60
2022/03/06 03:04:21;;;;;;;1.30;1.00;;;;;;;;;;5093002;28;20674;-60
2022/03/06 03:06:50;;;;;;;1.50;1.10;;;;;;;;;;5092949;28;20274;-60
2022/03/06 03:09:17;;;;;;;3.83;1.17;;;;;;;;;;5093237;28;20515;-60
2022/03/06 03:11:43;;;;;;;2.33;1.00;;;;;;;;;;5093373;28;20228;-60
2022/03/06 03:14:09;;;;;;;1.77;1.00;;;;;;;;;;5092985;28;20221;-60
2022/03/06 03:16:34;;;;;;;2.00;0.80;;;;;;;;;;5093244;28;20190;-60
2022/03/06 03:19:00;;;;;;;1.30;0.95;;;;;;;;;;5092930;28;20160;-60
2022/03/06 03:21:26;;;;;;;2.22;0.90;;;;;;;;;;5093137;28;20518;-60
2022/03/06 03:23:52;;;;;;;1.48;1.13;;;;;;;;;;5095859;28;20229;-60
2022/03/06 03:26:18;;;;;;;1.80;1.00;;;;;;;;;;5096663;28;20603;-60
2022/03/06 03:28:44;;;;;;;1.42;1.20;;;;;;;;;;5096866;28;20254;-60
2022/03/06 03:31:10;;;;;;;2.40;1.30;;;;;;;;;;5096556;28;20160;-60
2022/03/06 03:33:36;;;;;;;1.70;1.17;;;;;;;;;;5096529;28;20167;-60
2022/03/06 03:36:02;;;;;;;1.20;1.05;;;;;;;;;;5096546;28;20160;-60
2022/03/06 03:38:28;;;;;;;3.15;1.90;;;;;;;;;;5096547;28;20170;-60
2022/03/06 03:40:54;;;;;;;2.50;1.05;;;;;;;;;;5096497;28;20174;-60
2022/03/06 03:43:20;;;;;;;1.38;1.00;;;;;;;;;;5096683;28;20163;-60
2022/03/06 03:45:45;;;;;;;1.27;1.02;;;;;;;;;;5096620;28;20170;-60
2022/03/06 03:48:11;;;;;;;1.60;0.98;;;;;;;;;;5096277;28;20654;-60
2022/03/06 03:50:37;;;;;;;1.10;1.00;;;;;;;;;;5096193;28;20220;-60
2022/03/06 03:53:03;;;;;;;4.65;1.13;;;;;;;;;;5096120;28;20315;-60
2022/03/06 03:55:29;;;;;;;2.22;1.33;;;;;;;;;;5096128;28;20163;-60
2022/03/06 03:57:55;;;;;;;2.50;1.35;;;;;;;;;;5096065;28;20170;-60
2022/03/06 04:00:21;;;;;;;1.75;0.90;;;;;;;;;;5095872;28;20183;-60
2022/03/06 04:02:47;;;;;;;3.92;1.40;;;;;;;;;;5095904;28;20197;-60
2022/03/06 04:05:13;;;;;;;1.55;1.15;;;;;;;;;;5095964;28;20172;-60
2022/03/06 04:07:39;;;;;;;3.30;1.30;;;;;;;;;;5095811;28;20691;-60
2022/03/06 04:10:05;;;;;;;1.95;1.15;;;;;;;;;;5095779;28;20242;-61
2022/03/06 04:12:31;;;;;;;1.27;1.10;;;;;;;;;;5095879;28;20178;-61
2022/03/06 04:14:57;;;;;;;1.02;0.90;;;;;;;;;;5095756;28;20160;-61
2022/03/06 04:17:22;;;;;;;1.95;1.35;;;;;;;;;;5095760;28;20164;-60
2022/03/06 04:19:48;;;;;;;2.10;1.00;;;;;;;;;;5095737;28;20167;-61
2022/03/06 04:22:14;;;;;;;2.53;1.50;;;;;;;;;;5095790;28;20277;-60
2022/03/06 04:24:40;;;;;;;3.88;1.17;;;;;;;;;;5095596;28;20558;-60
2022/03/06 04:27:06;;;;;;;1.38;1.13;;;;;;;;;;5095563;28;20518;-60
2022/03/06 04:29:32;;;;;;;1.75;1.35;;;;;;;;;;5095487;28;20242;-61
2022/03/06 04:31:58;;;;;;;1.40;1.30;;;;;;;;;;5095500;28;20240;-61
2022/03/06 04:34:24;;;;;;;1.45;1.10;;;;;;;;;;5094552;28;20246;-61
2022/03/06 04:36:50;;;;;;;4.50;1.10;;;;;;;;;;5095581;28;20178;-61
2022/03/06 04:39:16;;;;;;;1.80;0.90;;;;;;;;;;5095231;28;20163;-60
2022/03/06 04:41:42;;;;;;;1.33;1.10;;;;;;;;;;5095258;28;20264;-60
2022/03/06 04:44:08;;;;;;;1.15;0.95;;;;;;;;;;5095083;28;20221;-60
2022/03/06 04:46:34;;;;;;;2.92;1.15;;;;;;;;;;5095130;28;20538;-60
2022/03/06 04:49:00;;;;;;;1.20;1.10;;;;;;;;;;5095071;28;20248;-59
2022/03/06 04:51:26;;;;;;;1.58;1.00;;;;;;;;;;5095076;28;20222;-61
2022/03/06 04:53:52;;;;;;;2.47;1.10;;;;;;;;;;5094954;28;20164;-60
2022/03/06 04:56:18;;;;;;;2.28;0.95;;;;;;;;;;5094847;28;20160;-61
2022/03/06 04:58:44;;;;;;;1.38;1.00;;;;;;;;;;5094918;28;20506;-60
2022/03/06 05:01:10;;;;;;;2.25;1.27;;;;;;;;;;5094823;28;20179;-61
2022/03/06 05:03:36;;;;;;;1.40;1.02;;;;;;;;;;5094895;28;20534;-60
2022/03/06 05:06:02;;;;;;;3.38;1.23;;;;;;;;;;5095074;28;20575;-61
2022/03/06 05:08:28;;;;;;;3.63;1.40;;;;;;;;;;5094660;28;20183;-61
2022/03/06 05:10:54;;;;;;;1.42;0.90;;;;;;;;;;5094938;28;20170;-61
2022/03/06 05:13:20;;;;;;;2.20;1.35;;;;;;;;;;5095051;28;20252;-59
2022/03/06 05:15:46;;;;;;;2.25;1.23;;;;;;;;;;5094688;28;20626;-60
2022/03/06 05:18:12;;;;;;;2.33;1.40;;;;;;;;;;5094646;28;20199;-61
2022/03/06 05:20:38;;;;;;;2.50;1.38;;;;;;;;;;5094784;28;20258;-61
2022/03/06 05:23:04;;;;;;;1.80;1.40;;;;;;;;;;5094516;28;20171;-61
2022/03/06 05:25:30;;;;;;;1.90;1.35;;;;;;;;;;5094347;28;20175;-60
2022/03/06 05:27:56;;;;;;;2.30;1.42;;;;;;;;;;5094528;28;20516;-60
2022/03/06 05:30:22;;;;;;;1.38;1.20;;;;;;;;;;5094638;28;20563;-60
2022/03/06 05:32:49;;;;;;;1.52;1.42;;;;;;;;;;5095015;28;20164;-60
2022/03/06 05:35:15;;;;;;;1.80;1.48;;;;;;;;;;5095465;28;20479;-60
2022/03/06 05:37:41;;;;;;;1.65;1.33;;;;;;;;;;5094480;28;20178;-60
2022/03/06 05:40:07;;;;;;;2.40;1.52;;;;;;;;;;5094138;28;20167;-60
2022/03/06 05:42:33;;;;;;;1.75;1.45;;;;;;;;;;5094138;28;20182;-59
2022/03/06 05:44:59;;;;;;;1.65;1.40;;;;;;;;;;5094225;28;20178;-59
2022/03/06 05:47:25;;;;;;;3.03;1.58;;;;;;;;;;5094194;28;20262;-60
2022/03/06 05:49:51;;;;;;;2.42;1.60;;;;;;;;;;5094335;28;20179;-60
2022/03/06 05:52:17;;;;;;;1.83;1.50;;;;;;;;;;5094018;28;20168;-60
2022/03/06 05:54:43;;;;;;;3.88;1.55;;;;;;;;;;5094121;28;20164;-61
2022/03/06 05:57:09;;;;;;;2.80;1.67;;;;;;;;;;5094138;28;20590;-58
2022/03/06 05:59:35;;;;;;;2.15;1.70;;;;;;;;;;5092939;28;20171;-61
2022/03/06 06:02:02;;;;;;;3.38;1.75;;;;;;;;;;5093924;28;20166;-61
2022/03/06 06:04:28;;;;;;;1.83;1.58;;;;;;;;;;5093817;28;20193;-61
2022/03/06 06:06:54;;;;;;;2.58;1.60;;;;;;;;;;5093921;28;20188;-61
2022/03/06 06:09:19;;;;;;;1.65;1.42;;;;;;;;;;5097055;28;20254;-61
2022/03/06 06:11:46;;;;;;;1.60;1.30;;;;;;;;;;5097539;28;20202;-61
2022/03/06 06:14:11;;;;;;;2.70;1.67;;;;;;;;;;5096547;28;20484;-61
2022/03/06 06:16:37;;;;;;;2.45;1.60;;;;;;;;;;5096277;28;20248;-60
2022/03/06 06:19:04;;;;;;;3.45;1.80;;;;;;;;;;5095896;28;20313;-61
2022/03/06 06:21:30;;;;;;;3.08;1.80;;;;;;;;;;5093551;28;20568;-61
2022/03/06 06:23:56;;;;;;;1.92;1.70;;;;;;;;;;5093485;28;20574;-61
2022/03/06 06:26:24;;;;;;;2.35;1.63;;;;;;;;;;5093726;28;20209;-58
2022/03/06 06:28:55;;;;;;;1.52;1.42;;;;;;;;;;5093856;28;20159;-57
2022/03/06 06:31:21;;;;;;;1.50;1.23;;;;;;;;;;5093926;28;20591;-60
2022/03/06 06:33:47;;;;;;;3.35;1.60;;;;;;;;;;5093474;28;20175;-59
2022/03/06 06:36:13;;;;;;;1.30;1.20;;;;;;;;;;5093751;28;20155;-61
2022/03/06 06:38:39;;;;;;;2.08;1.55;;;;;;;;;;5093652;28;20175;-61
2022/03/06 06:41:05;;;;;;;2.78;1.63;;;;;;;;;;5092391;28;20512;-58
2022/03/06 06:43:31;;;;;;;2.50;1.70;;;;;;;;;;5093656;28;20216;-58
2022/03/06 06:45:57;;;;;;;3.15;1.58;;;;;;;;;;5093545;28;20167;-59
2022/03/06 06:48:23;;;;;;;3.65;1.90;;;;;;;;;;5093620;28;20270;-59
2022/03/06 06:50:49;;;;;;;2.72;1.73;;;;;;;;;;5093844;28;20544;-59
2022/03/06 06:53:14;;;;;;;2.50;1.52;;;;;;;;;;5093647;28;20202;-59
2022/03/06 06:55:40;;;;;;;2.13;1.67;;;;;;;;;;5093310;28;20222;-59
2022/03/06 06:58:06;;;;;;;3.35;1.90;;;;;;;;;;5095046;28;20198;-60
2022/03/06 07:00:33;;;;;;;2.67;2.05;;;;;;;;;;5097155;28;20183;-59
2022/03/06 07:02:58;;;;;;;1.92;1.52;;;;;;;;;;5097588;28;20512;-60
2022/03/06 07:05:24;;;;;;;2.50;2.03;;;;;;;;;;5097088;28;20257;-59
2022/03/06 07:07:50;;;;;;;1.73;1.63;;;;;;;;;;5097189;28;20183;-59
2022/03/06 07:10:16;;;;;;;3.30;2.00;;;;;;;;;;5097326;28;20591;-59
2022/03/06 07:12:43;;;;;;;2.08;1.48;;;;;;;;;;5097049;28;20503;-59
2022/03/06 07:15:09;;;;;;;2.20;2.00;;;;;;;;;;5097034;28;20254;-59
2022/03/06 07:17:35;;;;;;;2.65;1.80;;;;;;;;;;5096837;28;20178;-60
2022/03/06 07:20:01;;;;;;;2.67;1.90;;;;;;;;;;5096888;28;20579;-60
2022/03/06 07:22:27;;;;;;;2.78;2.10;;;;;;;;;;5096893;28;20177;-61
2022/03/06 07:24:53;;;;;;;3.17;2.00;;;;;;;;;;5096797;28;20224;-60
2022/03/06 07:27:19;;;;;;;2.03;1.70;;;;;;;;;;5096921;28;20191;-60
2022/03/06 07:29:45;;;;;;;2.20;1.63;;;;;;;;;;5096773;28;20159;-60
2022/03/06 07:32:11;;;;;;;1.60;1.50;;;;;;;;;;5096539;28;20603;-60
2022/03/06 07:34:36;;;;;;;2.35;1.70;;;;;;;;;;5096800;28;20205;-60
2022/03/06 07:37:02;;;;;;;2.78;1.85;;;;;;;;;;5096769;28;20220;-60
2022/03/06 07:39:28;;;;;;;2.75;1.73;;;;;;;;;;5096631;28;20167;-59
2022/03/06 07:41:54;;;;;;;4.00;1.50;;;;;;;;;;5096333;28;20166;-60
2022/03/06 07:44:20;;;;;;;2.47;1.60;;;;;;;;;;5096418;28;20171;-60
2022/03/06 07:46:46;;;;;;;2.63;1.92;;;;;;;;;;5096660;28;20187;-60
2022/03/06 07:49:12;;;;;;;2.28;1.73;;;;;;;;;;5096373;28;20503;-60
2022/03/06 07:51:38;;;;;;;3.30;1.77;;;;;;;;;;5096210;28;20168;-60
2022/03/06 07:54:04;;;;;;;3.00;1.73;;;;;;;;;;5096381;28;20664;-60
2022/03/06 07:56:30;;;;;;;1.67;1.52;;;;;;;;;;5096386;28;20171;-60
2022/03/06 07:58:56;;;;;;;2.47;1.60;;;;;;;;;;5096460;28;20160;-59
2022/03/06 08:01:23;;;;;;;4.40;1.48;;;;;;;;;;5096086;28;20203;-60
2022/03/06 08:03:48;;;;;;;2.08;1.40;;;;;;;;;;5096398;28;20176;-60
2022/03/06 08:06:14;;;;;;;1.52;1.42;;;;;;;;;;5096136;28;20561;-60
2022/03/06 08:08:41;;;;;;;2.47;1.30;;;;;;;;;;5095856;28;20196;-59
2022/03/06 08:11:07;;;;;;;3.10;1.15;;;;;;;;;;5095538;28;20263;-59
2022/03/06 08:13:33;;;;;;;2.03;1.20;;;;;;;;;;5096120;28;20489;-61
2022/03/06 08:15:59;;;;;;;1.48;1.10;;;;;;;;;;5095859;28;20189;-60
2022/03/06 08:18:24;;;;;;;1.27;1.00;;;;;;;;;;5096202;28;20201;-61
2022/03/06 08:20:50;;;;;;;2.47;1.00;;;;;;;;;;5095810;28;20887;-62
2022/03/06 08:23:16;;;;;;;0.88;0.82;;;;;;;;;;5095718;28;20167;-62
2022/03/06 08:25:42;;;;;;;2.47;0.85;;;;;;;;;;5095848;28;20194;-61
2022/03/06 08:28:08;;;;;;;1.75;0.93;;;;;;;;;;5095939;28;20198;-61
2022/03/06 08:30:34;;;;;;;3.47;1.10;;;;;;;;;;5095686;28;20191;-59
2022/03/06 08:33:00;;;;;;;0.82;0.82;;;;;;;;;;5095563;28;20159;-60
2022/03/06 08:35:26;;;;;;;1.50;0.98;;;;;;;;;;5095524;28;20262;-60
2022/03/06 08:37:52;;;;;;;2.58;0.82;;;;;;;;;;5095693;28;20171;-58
2022/03/06 08:40:18;;;;;;;1.15;0.88;;;;;;;;;;5096527;28;20164;-60
2022/03/06 08:42:44;;;;;;;1.15;0.82;;;;;;;;;;5101639;28;20623;-60
2022/03/06 08:45:10;;;;;;;1.38;0.73;;;;;;;;;;5096415;28;20168;-60
2022/03/06 08:47:35;;;;;;;1.80;0.80;;;;;;;;;;5097304;28;20229;-61
2022/03/06 08:50:01;;;;;;;1.15;0.77;;;;;;;;;;5095961;28;20167;-60
2022/03/06 08:52:27;;;;;;;2.58;0.90;;;;;;;;;;5095327;28;20163;-61
2022/03/06 08:54:54;;;;;;;1.85;0.75;;;;;;;;;;5095413;28;20171;-59
2022/03/06 08:57:20;;;;;;;1.33;0.90;;;;;;;;;;5095440;28;20186;-60
2022/03/06 08:59:45;;;;;;;0.82;0.68;;;;;;;;;;5095333;28;20475;-60
2022/03/06 09:02:11;;;;;;;1.52;0.80;;;;;;;;;;5094922;28;20171;-60
2022/03/06 09:04:37;;;;;;;1.67;0.88;;;;;;;;;;5095160;28;20597;-60
2022/03/06 09:07:03;;;;;;;1.00;0.73;;;;;;;;;;5094724;28;20191;-59
2022/03/06 09:09:29;;;;;;;2.28;0.93;;;;;;;;;;5098192;28;20167;-60
2022/03/06 09:11:55;;;;;;;1.73;0.73;;;;;;;;;;5094860;28;20160;-61
2022/03/06 09:14:21;;;;;;;1.95;0.82;;;;;;;;;;5095189;28;20626;-61
2022/03/06 09:16:47;;;;;;;1.55;0.90;;;;;;;;;;5095091;28;20171;-61
2022/03/06 09:19:13;;;;;;;1.00;0.77;;;;;;;;;;5094616;28;20556;-60
2022/03/06 09:21:39;;;;;;;1.35;0.75;;;;;;;;;;5094152;28;20316;-61
2022/03/06 09:24:06;;;;;;;1.55;0.70;;;;;;;;;;5094875;28;20183;-61
2022/03/06 09:26:32;;;;;;;1.77;0.93;;;;;;;;;;5093842;28;20623;-61
2022/03/06 09:28:57;;;;;;;1.38;0.82;;;;;;;;;;5094443;28;20188;-61
2022/03/06 09:31:25;;;;;;;1.67;0.60;;;;;;;;;;5094415;28;20160;-60
2022/03/06 09:33:51;;;;;;;2.20;0.88;;;;;;;;;;5094550;28;20170;-61
2022/03/06 09:36:17;;;;;;;2.22;0.90;;;;;;;;;;5094376;28;20160;-61
2022/03/06 09:38:43;;;;;;;2.90;0.88;;;;;;;;;;5094636;28;20170;-59
2022/03/06 09:41:10;;;;;;;3.17;1.17;;;;;;;;;;5094379;28;20170;-61
2022/03/06 09:43:36;;;;;;;1.45;1.00;;;;;;;;;;5094476;28;20171;-61
2022/03/06 09:46:06;;;;;;;1.88;1.02;;;;;;;;;;5094297;28;20634;-60
2022/03/06 09:48:32;;;;;;;1.33;0.85;;;;;;;;;;5094269;28;20187;-61
2022/03/06 09:50:58;;;;;;;1.50;0.80;;;;;;;;;;5094210;28;20182;-61
2022/03/06 09:53:24;;;;;;;3.22;1.08;;;;;;;;;;5094234;28;20164;-61
2022/03/06 09:55:50;;;;;;;2.10;0.80;;;;;;;;;;5094560;28;20255;-61
2022/03/06 09:58:16;;;;;;;2.65;0.90;;;;;;;;;;5094455;28;20171;-60
2022/03/06 10:00:42;;;;;;;2.10;0.93;;;;;;;;;;5093841;28;20525;-61
2022/03/06 10:03:16;;;;;;;1.45;0.90;;;;;;;;;;5094080;28;20193;-61
2022/03/06 10:05:42;;;;;;;2.30;1.13;;;;;;;;;;5093836;28;20208;-61
2022/03/06 10:08:15;;;;;;;3.22;1.10;;;;;;;;;;5093824;28;20514;-61
2022/03/06 10:10:41;;;;;;;1.40;0.80;;;;;;;;;;5094104;28;20171;-60
2022/03/06 10:13:28;;;;;;;1.35;0.85;;;;;;;;;;5093728;28;20174;-60
2022/03/06 10:16:09;;;;;;;1.75;0.82;;;;;;;;;;5093874;28;20160;-61
2022/03/06 10:18:37;;;;;;;1.42;0.82;;;;;;;;;;5093768;28;20238;-60
2022/03/06 10:21:10;;;;;;;2.08;1.02;;;;;;;;;;5093666;28;20168;-60
2022/03/06 10:23:36;;;;;;;1.30;0.80;;;;;;;;;;5094067;28;20159;-60
2022/03/06 10:26:04;;;;;;;2.42;0.90;;;;;;;;;;5093756;28;20179;-60
2022/03/06 10:28:29;;;;;;;1.67;0.90;;;;;;;;;;5093763;28;20572;-61
2022/03/06 10:31:02;;;;;;;2.88;1.00;;;;;;;;;;5094307;28;20166;-61
2022/03/06 10:33:28;;;;;;;3.50;1.40;;;;;;;;;;5093002;28;20163;-61
2022/03/06 10:35:58;;;;;;;2.08;1.00;;;;;;;;;;5093869;28;20152;-61
2022/03/06 10:38:28;;;;;;;2.10;1.00;;;;;;;;;;5093657;28;20168;-60
2022/03/06 10:40:58;;;;;;;1.73;0.80;;;;;;;;;;5093549;28;20522;-61
2022/03/06 10:43:28;;;;;;;0.77;0.73;;;;;;;;;;5093643;28;20162;-61
2022/03/06 10:46:11;;;;;;;1.88;0.90;;;;;;;;;;5093379;28;20171;-60
2022/03/06 10:48:37;;;;;;;2.33;1.10;;;;;;;;;;5093631;28;20195;-60
2022/03/06 10:51:05;;;;;;;4.18;1.10;;;;;;;;;;5094058;28;20173;-61
2022/03/06 10:53:31;;;;;;;2.65;1.23;;;;;;;;;;5093442;28;20160;-60
2022/03/06 10:56:06;;;;;;;1.42;1.00;;;;;;;;;;5093372;28;20164;-60
2022/03/06 10:58:33;;;;;;;1.77;0.80;;;;;;;;;;5094511;28;20230;-61
2022/03/06 11:00:59;;;;;;;1.05;0.80;;;;;;;;;;5095064;28;20180;-60
2022/03/06 11:03:26;;;;;;;2.65;1.00;;;;;;;;;;5093308;28;20503;-60
2022/03/06 11:05:52;;;;;;;2.80;0.90;;;;;;;;;;5093290;28;20255;-60
2022/03/06 11:08:18;;;;;;;1.25;0.90;;;;;;;;;;5093263;28;20488;-60
2022/03/06 11:10:44;;;;;;;1.45;1.10;;;;;;;;;;5093253;28;20160;-60
2022/03/06 11:13:14;;;;;;;2.40;1.45;;;;;;;;;;5093101;28;20163;-60
2022/03/06 11:15:41;;;;;;;2.35;1.25;;;;;;;;;;5093276;28;20160;-59
2022/03/06 11:18:07;;;;;;;1.13;1.02;;;;;;;;;;5092919;28;20178;-60
2022/03/06 11:20:33;;;;;;;1.35;1.17;;;;;;;;;;5093292;28;20164;-60
2022/03/06 11:23:18;;;;;;;2.10;1.08;;;;;;;;;;5093059;28;20164;-60
2022/03/06 11:26:02;;;;;;;2.20;1.20;;;;;;;;;;5093124;28;20267;-60
2022/03/06 11:28:36;;;;;;;2.08;1.50;;;;;;;;;;5092699;28;20646;-59
2022/03/06 11:31:02;;;;;;;4.13;1.63;;;;;;;;;;5093192;28;20681;-60
2022/03/06 11:33:28;;;;;;;2.08;1.50;;;;;;;;;;5092791;28;20160;-60
2022/03/06 11:35:55;;;;;;;3.17;1.50;;;;;;;;;;5092820;28;20707;-60
2022/03/06 11:38:21;;;;;;;2.10;1.42;;;;;;;;;;5092978;28;20493;-60
2022/03/06 11:40:49;;;;;;;3.30;1.40;;;;;;;;;;5092906;28;20167;-60
2022/03/06 11:43:31;;;;;;;1.83;1.20;;;;;;;;;;5093133;28;20254;-60
2022/03/06 11:46:09;;;;;;;2.03;1.30;;;;;;;;;;5096813;28;20490;-60
2022/03/06 11:48:35;;;;;;;2.67;1.30;;;;;;;;;;5096404;28;20190;-60
2022/03/06 11:51:17;;;;;;;3.33;1.23;;;;;;;;;;5096317;28;20297;-60
2022/03/06 11:53:50;;;;;;;3.10;1.13;;;;;;;;;;5096355;28;20159;-60
2022/03/06 11:56:34;;;;;;;1.95;1.25;;;;;;;;;;5096131;28;20627;-61
2022/03/06 11:59:00;;;;;;;4.43;1.30;;;;;;;;;;5096039;28;20178;-60
2022/03/06 12:01:33;;;;;;;2.33;1.48;;;;;;;;;;5096325;28;20176;-61
2022/03/06 12:04:09;;;;;;;2.28;1.27;;;;;;;;;;5096312;28;20210;-60
2022/03/06 12:06:39;;;;;;;3.22;1.42;;;;;;;;;;5095954;28;20182;-61
2022/03/06 12:09:14;;;;;;;3.65;1.33;;;;;;;;;;5095941;28;20223;-60
2022/03/06 12:11:40;;;;;;;1.85;1.30;;;;;;;;;;5096304;28;20261;-59
2022/03/06 12:14:20;;;;;;;3.47;1.63;;;;;;;;;;5095736;28;20227;-60
2022/03/06 12:17:06;;;;;;;2.10;1.50;;;;;;;;;;5096214;28;20462;-60
2022/03/06 12:19:54;;;;;;;1.95;1.17;;;;;;;;;;5096193;28;20209;-60
2022/03/06 12:22:23;;;;;;;2.42;1.30;;;;;;;;;;5095966;28;20179;-60
2022/03/06 12:24:51;;;;;;;3.88;1.40;;;;;;;;;;5095760;28;20429;-60
2022/03/06 12:27:18;;;;;;;1.80;1.40;;;;;;;;;;5095634;28;20179;-60
2022/03/06 12:29:47;;;;;;;2.25;1.60;;;;;;;;;;5095657;28;20163;-60
2022/03/06 12:32:31;;;;;;;2.30;1.42;;;;;;;;;;5096177;28;20159;-60
2022/03/06 12:35:04;;;;;;;3.80;1.40;;;;;;;;;;5096493;28;20140;-60
2022/03/06 12:37:31;;;;;;;3.92;1.63;;;;;;;;;;5096084;28;20217;-60
2022/03/06 12:39:58;;;;;;;1.98;1.58;;;;;;;;;;5096212;28;20170;-60
2022/03/06 12:42:28;;;;;;;1.75;1.20;;;;;;;;;;5096296;28;20171;-60
2022/03/06 12:44:55;;;;;;;1.80;1.35;;;;;;;;;;5096382;28;20164;-60
2022/03/06 12:47:21;;;;;;;3.75;1.80;;;;;;;;;;5095928;28;20188;-59
2022/03/06 12:49:51;;;;;;;3.00;1.55;;;;;;;;;;5096174;28;20171;-59
2022/03/06 12:52:21;;;;;;;1.77;1.33;;;;;;;;;;5096361;28;20164;-60
2022/03/06 12:54:48;;;;;;;1.80;1.42;;;;;;;;;;5097011;28;20160;-60
2022/03/06 12:57:14;;;;;;;3.22;1.80;;;;;;;;;;5098933;28;20164;-59
2022/03/06 12:59:41;;;;;;;3.45;1.65;;;;;;;;;;5097491;28;20163;-60
2022/03/06 13:02:07;;;;;;;4.95;1.92;;;;;;;;;;5098910;28;20463;-60
2022/03/06 13:04:34;;;;;;;2.70;1.90;;;;;;;;;;5098552;28;20179;-60
2022/03/06 13:07:00;;;;;;;2.05;1.75;;;;;;;;;;5098468;28;20198;-60
2022/03/06 13:09:27;;;;;;;2.03;1.75;;;;;;;;;;5097458;28;20167;-60
2022/03/06 13:11:54;;;;;;;5.20;2.08;;;;;;;;;;5096689;28;20174;-60
2022/03/06 13:14:36;;;;;;;4.03;2.10;;;;;;;;;;5095569;28;20191;-60
2022/03/06 13:17:03;;;;;;;3.60;2.08;;;;;;;;;;5095224;28;20148;-60
2022/03/06 13:19:43;;;;;;;2.47;1.85;;;;;;;;;;5095600;28;20171;-60
2022/03/06 13:22:10;;;;;;;4.20;1.92;;;;;;;;;;5096463;28;20163;-60
2022/03/06 13:24:40;;;;;;;4.60;2.10;;;;;;;;;;5095868;28;20179;-59
2022/03/06 13:27:06;;;;;;;3.17;2.08;;;;;;;;;;5095617;28;20282;-60
2022/03/06 13:29:32;;;;;;;3.83;2.33;;;;;;;;;;5094830;28;20554;-60
2022/03/06 13:31:58;;;;;;;3.50;2.30;;;;;;;;;;5095472;28;20194;-60
2022/03/06 13:34:26;;;;;;;3.78;2.80;;;;;;;;;;5095276;28;20190;-58
2022/03/06 13:36:52;;;;;;;3.10;2.15;;;;;;;;;;5094982;28;20167;-60
2022/03/06 13:39:20;;;;;;;5.63;2.63;;;;;;;;;;5094802;28;20229;-60
2022/03/06 13:41:53;;;;;;;3.60;2.58;;;;;;;;;;5094805;28;20405;-60
2022/03/06 13:44:20;;;;;;;3.30;2.55;;;;;;;;;;5095443;28;20155;-60
2022/03/06 13:46:46;;;;;;;4.57;2.75;;;;;;;;;;5095320;28;20163;-57
2022/03/06 13:49:13;;;;;;;3.67;2.70;;;;;;;;;;5095335;28;20171;-58
2022/03/06 13:51:40;;;;;;;4.75;2.92;;;;;;;;;;5094832;28;20183;-59
2022/03/06 13:54:06;;;;;;;4.53;2.80;;;;;;;;;;5094599;28;20179;-60
2022/03/06 13:56:34;;;;;;;4.22;2.70;;;;;;;;;;5094446;28;20617;-60
2022/03/06 13:59:00;;;;;;;4.03;2.88;;;;;;;;;;5094135;28;20167;-60
2022/03/06 14:01:27;;;;;;;3.80;2.88;;;;;;;;;;5093899;28;20609;-61
2022/03/06 14:04:06;;;;;;;5.10;3.00;;;;;;;;;;5093987;28;20172;-60
2022/03/06 14:06:33;;;;;;;5.57;3.30;;;;;;;;;;5094033;28;20185;-61
2022/03/06 14:08:59;;;;;;;3.70;3.05;;;;;;;;;;5092999;28;20203;-61
2022/03/06 14:11:26;;;;;;;5.15;3.05;;;;;;;;;;5093977;28;20164;-60
2022/03/06 14:13:53;;;;;;;4.85;2.80;;;;;;;;;;5094743;28;20159;-60
2022/03/06 14:16:19;;;;;;;5.25;3.40;;;;;;;;;;5094499;28;20646;-59
2022/03/06 14:18:47;;;;;;;4.25;2.85;;;;;;;;;;5094517;28;20178;-59
2022/03/06 14:21:20;;;;;;;4.53;3.20;;;;;;;;;;5094598;28;20187;-59
2022/03/06 14:23:47;;;;;;;4.32;2.95;;;;;;;;;;5094542;28;20168;-60
2022/03/06 14:26:14;;;;;;;4.85;3.30;;;;;;;;;;5094477;28;20160;-59
2022/03/06 14:28:50;;;;;;;4.65;3.28;;;;;;;;;;5094264;28;20191;-60
2022/03/06 14:31:17;;;;;;;4.85;3.50;;;;;;;;;;5094305;28;20155;-60
2022/03/06 14:33:44;;;;;;;3.15;2.85;;;;;;;;;;5094387;28;20181;-59
2022/03/06 14:36:10;;;;;;;5.00;3.30;;;;;;;;;;5094048;28;20224;-60
2022/03/06 14:38:36;;;;;;;5.72;3.38;;;;;;;;;;5093061;28;20175;-60
2022/03/06 14:41:02;;;;;;;6.70;3.10;;;;;;;;;;5094521;28;20452;-59
2022/03/06 14:43:28;;;;;;;3.40;3.10;;;;;;;;;;5094638;28;20171;-60